WIA2437 TNCM-TNCS
Flight info
| Callsign | WIA2437 |
|---|---|
| Flight time | 0h 12m |
| Altitude | 6000 |
| Route | TNCM/10 PJM |
| Aircraft | DHC6/L-SDFGR/C |
Departure
| Time | 2026-05-03 20:24 |
|---|---|
| Airport | Princess Juliana International Airport (TNCM) |
Arrival
| Time | 2026-05-03 20:36 |
|---|---|
| Airport | Juancho E. Yrausquin Airport (TNCS) |
| Time | Latitude | Longitude | Altitude | Speed | Heading |
|---|---|---|---|---|---|
| 2026-05-03 20:15 | 18.04208 | -63.11030 | 16 ft | 0 kts | 175° |
| 2026-05-03 20:21 | 18.04207 | -63.11030 | 16 ft | 1 kts | 175° |
| 2026-05-03 20:21 | 18.04174 | -63.11023 | 16 ft | 7 kts | 199° |
| 2026-05-03 20:21 | 18.04151 | -63.11160 | 16 ft | 32 kts | 262° |
| 2026-05-03 20:22 | 18.04102 | -63.11297 | 16 ft | 1 kts | 168° |
| 2026-05-03 20:22 | 18.04172 | -63.11296 | 16 ft | 5 kts | 175° |
| 2026-05-03 20:22 | 18.04166 | -63.11301 | 16 ft | 27 kts | 158° |
| 2026-05-03 20:22 | 18.04085 | -63.11287 | 15 ft | 23 kts | 172° |
| 2026-05-03 20:23 | 18.04040 | -63.11241 | 15 ft | 0 kts | 75° |
| 2026-05-03 20:23 | 18.04045 | -63.11212 | 16 ft | 29 kts | 80° |
| 2026-05-03 20:23 | 18.04097 | -63.10777 | 409 ft | 40 kts | 96° |
| 2026-05-03 20:23 | 18.04060 | -63.10193 | 553 ft | 103 kts | 85° |
| 2026-05-03 20:24 | 18.03690 | -63.09545 | 870 ft | 136 kts | 164° |
| 2026-05-03 20:24 | 18.02971 | -63.10127 | 1231 ft | 151 kts | 265° |
| 2026-05-03 20:24 | 18.03429 | -63.11121 | 1458 ft | 161 kts | 302° |
| 2026-05-03 20:24 | 18.03986 | -63.12041 | 2228 ft | 144 kts | 306° |
| 2026-05-03 20:25 | 18.04619 | -63.12971 | 2497 ft | 162 kts | 309° |
| 2026-05-03 20:25 | 18.05298 | -63.13930 | 2905 ft | 167 kts | 307° |
| 2026-05-03 20:25 | 18.05906 | -63.14967 | 3167 ft | 171 kts | 287° |
| 2026-05-03 20:25 | 18.05758 | -63.16185 | 3407 ft | 169 kts | 233° |
| 2026-05-03 20:26 | 18.04838 | -63.16792 | 3657 ft | 157 kts | 181° |
| 2026-05-03 20:26 | 18.03805 | -63.16670 | 3938 ft | 147 kts | 167° |
| 2026-05-03 20:26 | 18.02767 | -63.16635 | 4222 ft | 150 kts | 175° |
| 2026-05-03 20:26 | 18.01720 | -63.16630 | 4536 ft | 151 kts | 174° |
| 2026-05-03 20:27 | 18.00667 | -63.16630 | 4846 ft | 151 kts | 174° |
| 2026-05-03 20:27 | 17.99619 | -63.16707 | 5138 ft | 152 kts | 179° |
| 2026-05-03 20:27 | 17.98561 | -63.16783 | 5439 ft | 152 kts | 178° |
| 2026-05-03 20:27 | 17.97502 | -63.16858 | 5739 ft | 153 kts | 178° |
| 2026-05-03 20:28 | 17.96432 | -63.16935 | 5977 ft | 157 kts | 179° |
| 2026-05-03 20:28 | 17.95304 | -63.17204 | 5981 ft | 173 kts | 191° |
| 2026-05-03 20:28 | 17.94134 | -63.17565 | 5996 ft | 178 kts | 191° |
| 2026-05-03 20:28 | 17.92934 | -63.17928 | 5993 ft | 180 kts | 191° |
| 2026-05-03 20:29 | 17.91723 | -63.18294 | 5993 ft | 181 kts | 191° |
| 2026-05-03 20:29 | 17.90509 | -63.18648 | 5994 ft | 181 kts | 191° |
| 2026-05-03 20:29 | 17.89289 | -63.19011 | 5990 ft | 182 kts | 190° |
| 2026-05-03 20:29 | 17.88071 | -63.19372 | 5993 ft | 182 kts | 191° |
| 2026-05-03 20:30 | 17.86848 | -63.19732 | 5992 ft | 183 kts | 191° |
| 2026-05-03 20:30 | 17.85622 | -63.20092 | 5993 ft | 182 kts | 191° |
| 2026-05-03 20:30 | 17.84399 | -63.20456 | 5991 ft | 183 kts | 191° |
| 2026-05-03 20:30 | 17.83173 | -63.20820 | 5996 ft | 183 kts | 191° |
| 2026-05-03 20:31 | 17.81947 | -63.21180 | 5991 ft | 183 kts | 191° |
| 2026-05-03 20:31 | 17.80721 | -63.21538 | 5993 ft | 183 kts | 191° |
| 2026-05-03 20:31 | 17.79495 | -63.21889 | 5991 ft | 183 kts | 190° |
| 2026-05-03 20:31 | 17.78290 | -63.22256 | 5998 ft | 183 kts | 194° |
| 2026-05-03 20:32 | 17.77123 | -63.22706 | 5996 ft | 157 kts | 195° |
| 2026-05-03 20:32 | 17.76246 | -63.23076 | 5913 ft | 122 kts | 195° |
| 2026-05-03 20:32 | 17.75530 | -63.23398 | 5330 ft | 111 kts | 195° |
| 2026-05-03 20:32 | 17.74738 | -63.23734 | 4381 ft | 140 kts | 196° |
| 2026-05-03 20:33 | 17.73850 | -63.24092 | 4060 ft | 123 kts | 195° |
| 2026-05-03 20:33 | 17.73173 | -63.24391 | 3779 ft | 99 kts | 195° |
| 2026-05-03 20:33 | 17.72487 | -63.24686 | 2988 ft | 108 kts | 192° |
| 2026-05-03 20:33 | 17.71614 | -63.24802 | 2462 ft | 151 kts | 178° |
| 2026-05-03 20:34 | 17.70559 | -63.24732 | 2652 ft | 154 kts | 160° |
| 2026-05-03 20:34 | 17.69517 | -63.24415 | 2693 ft | 163 kts | 160° |
| 2026-05-03 20:34 | 17.68410 | -63.24141 | 2204 ft | 155 kts | 165° |
| 2026-05-03 20:34 | 17.67410 | -63.23925 | 1760 ft | 136 kts | 162° |
| 2026-05-03 20:35 | 17.66531 | -63.23786 | 1425 ft | 115 kts | 167° |
| 2026-05-03 20:35 | 17.65854 | -63.23694 | 971 ft | 85 kts | 162° |
| 2026-05-03 20:35 | 17.65380 | -63.23494 | 666 ft | 75 kts | 135° |
| 2026-05-03 20:35 | 17.64949 | -63.23098 | 566 ft | 69 kts | 129° |
| 2026-05-03 20:36 | 17.64759 | -63.22678 | 326 ft | 65 kts | 105° |
| 2026-05-03 20:36 | 17.64613 | -63.22255 | 177 ft | 59 kts | 108° |
| 2026-05-03 20:36 | 17.64533 | -63.22037 | 128 ft | 19 kts | 110° |
| 2026-05-03 20:36 | 17.64482 | -63.22034 | 128 ft | 5 kts | 158° |
| 2026-05-03 20:37 | 17.64464 | -63.22017 | 126 ft | 3 kts | 208° |
| 2026-05-03 20:37 | 17.64450 | -63.22023 | 126 ft | 0 kts | 203° |
| 2026-05-03 20:39 | 17.64449 | -63.22023 | 129 ft | 0 kts | 203° |
| 2026-05-03 20:39 | 17.64456 | -63.21986 | 122 ft | 19 kts | 292° |
| 2026-05-03 20:39 | 17.64464 | -63.22020 | 124 ft | 4 kts | 184° |
| 2026-05-03 20:40 | 17.64449 | -63.22024 | 129 ft | 0 kts | 202° |
| 2026-05-03 20:40 | 17.64450 | -63.22023 | 129 ft | 2 kts | 202° |
| 2026-05-03 20:40 | 17.64421 | -63.21948 | 113 ft | 0 kts | 341° |
| 2026-05-03 20:40 | 17.64402 | -63.21944 | 101 ft | 5 kts | 348° |
| 2026-05-03 20:41 | 17.64354 | -63.21945 | 89 ft | 0 kts | 7° |
| 2026-05-03 20:41 | 17.64366 | -63.21941 | 89 ft | 9 kts | 329° |
| 2026-05-03 20:41 | 17.64365 | -63.21886 | 88 ft | 8 kts | 250° |
| 2026-05-03 20:41 | 17.64369 | -63.21870 | 87 ft | 1 kts | 262° |
| 2026-05-03 20:42 | 17.64369 | -63.21869 | 87 ft | 1 kts | 260° |
| 2026-05-03 20:42 | 17.64396 | -63.22026 | 95 ft | 0 kts | 252° |
| 2026-05-03 20:42 | 17.64383 | -63.22064 | 72 ft | 4 kts | 225° |
| 2026-05-03 20:42 | 17.64373 | -63.22075 | 69 ft | 3 kts | 257° |
| 2026-05-03 20:43 | 17.64372 | -63.22085 | 62 ft | 0 kts | 268° |
| 2026-05-03 20:43 | 17.64363 | -63.22098 | 67 ft | 10 kts | 210° |
| 2026-05-03 20:44 | 17.64328 | -63.22103 | 195 ft | 0 kts | 173° |
| 2026-05-03 20:44 | 17.63952 | -63.22431 | 296 ft | 138 kts | 92° |